Time;durP1;ratioP1;P1;durP2;ratioP2;P2;SDS_P1;SDS_P2;PMS_P1;PMS_P2;Temp;Humidity;BMP_temperature;BMP_pressure;BME280_temperature;BME280_humidity;BME280_pressure;Samples;Min_cycle;Max_cycle;Signal;HPM_P1;HPM_P2
2022/07/30 00:00:09;;;;;;;7.60;4.40;;;21.80;99.90;;;;;;5072649;28;20219;-66
2022/07/30 00:02:36;;;;;;;5.30;4.07;;;21.70;99.90;;;;;;5073192;28;20201;-66
2022/07/30 00:05:03;;;;;;;9.03;4.67;;;21.70;99.90;;;;;;5072986;28;20300;-65
2022/07/30 00:07:30;;;;;;;7.70;4.00;;;21.60;99.90;;;;;;5071721;28;20289;-66
2022/07/30 00:09:57;;;;;;;6.13;3.80;;;21.60;99.90;;;;;;5066382;28;20375;-66
2022/07/30 00:12:25;;;;;;;7.67;3.90;;;21.60;99.90;;;;;;5073161;28;20268;-65
2022/07/30 00:14:52;;;;;;;6.80;4.40;;;21.70;99.90;;;;;;5070266;28;20292;-70
2022/07/30 00:17:19;;;;;;;6.10;4.17;;;21.60;99.90;;;;;;5072049;28;20654;-71
2022/07/30 00:19:47;;;;;;;6.77;4.23;;;21.60;99.90;;;;;;5070143;28;20292;-70
2022/07/30 00:22:14;;;;;;;7.53;4.27;;;21.60;99.90;;;;;;5071865;28;20283;-70
2022/07/30 00:24:40;;;;;;;8.93;4.30;;;21.50;99.90;;;;;;5071886;28;20268;-70
2022/07/30 00:27:07;;;;;;;5.53;3.37;;;21.50;99.90;;;;;;5072056;28;20207;-70
2022/07/30 00:29:36;;;;;;;6.73;3.97;;;21.50;99.90;;;;;;5072502;28;20634;-69
2022/07/30 00:32:02;;;;;;;5.73;3.77;;;21.50;99.90;;;;;;5072140;28;20224;-71
2022/07/30 00:34:29;;;;;;;7.43;4.23;;;21.50;99.90;;;;;;5069497;28;20302;-73
2022/07/30 00:36:56;;;;;;;6.90;3.90;;;21.40;99.90;;;;;;5071284;28;20268;-71
2022/07/30 00:39:23;;;;;;;5.67;4.30;;;21.40;99.90;;;;;;5072145;28;20281;-69
2022/07/30 00:41:57;;;;;;;6.47;4.40;;;21.40;99.90;;;;;;5071498;28;20201;-71
2022/07/30 00:44:24;;;;;;;5.20;3.60;;;21.40;99.90;;;;;;5071747;28;20258;-70
2022/07/30 00:46:53;;;;;;;5.70;4.37;;;21.30;99.90;;;;;;5070785;28;20214;-72
2022/07/30 00:49:20;;;;;;;9.33;4.50;;;21.30;99.90;;;;;;5072211;28;20208;-72
2022/07/30 00:51:48;;;;;;;5.97;4.50;;;21.30;99.90;;;;;;5071729;28;20314;-71
2022/07/30 00:54:16;;;;;;;7.43;4.30;;;21.20;99.90;;;;;;5072249;28;20650;-71
2022/07/30 00:56:43;;;;;;;6.13;4.03;;;21.20;99.90;;;;;;5071658;28;20260;-71
2022/07/30 00:59:10;;;;;;;5.90;3.80;;;21.10;99.90;;;;;;5071111;28;20222;-70
2022/07/30 01:01:37;;;;;;;8.80;4.20;;;21.10;99.90;;;;;;5070509;28;20292;-71
2022/07/30 01:04:10;;;;;;;5.80;4.20;;;21.10;99.90;;;;;;5072197;28;20201;-71
2022/07/30 01:06:37;;;;;;;6.13;4.47;;;21.00;99.90;;;;;;5071769;28;20190;-71
2022/07/30 01:09:04;;;;;;;7.07;4.20;;;21.00;99.90;;;;;;5071865;28;20244;-71
2022/07/30 01:11:35;;;;;;;6.47;4.17;;;21.00;99.90;;;;;;5071556;28;20311;-71
2022/07/30 01:14:03;;;;;;;8.37;4.33;;;20.90;99.90;;;;;;5071613;28;20275;-71
2022/07/30 01:16:30;;;;;;;8.37;4.27;;;20.90;99.90;;;;;;5071777;28;20641;-71
2022/07/30 01:21:49;;;;;;;8.13;4.27;;;20.80;99.90;;;;;;5071609;28;20268;-70
2022/07/30 01:24:27;;;;;;;9.70;4.73;;;20.80;99.90;;;;;;5071500;28;20235;-71
2022/07/30 01:26:56;;;;;;;8.73;4.17;;;20.80;99.90;;;;;;5071522;28;20267;-71
2022/07/30 01:29:25;;;;;;;5.73;4.00;;;20.80;99.90;;;;;;5070075;28;20284;-70
2022/07/30 01:31:54;;;;;;;5.23;3.67;;;20.70;99.90;;;;;;5071628;28;20309;-71
2022/07/30 01:34:23;;;;;;;5.20;4.10;;;20.70;99.90;;;;;;5071945;28;20204;-72
2022/07/30 01:36:51;;;;;;;5.73;4.00;;;20.80;99.90;;;;;;5070123;28;20252;-71
2022/07/30 01:39:19;;;;;;;11.13;3.93;;;20.70;99.90;;;;;;5071616;28;20298;-70
2022/07/30 01:41:48;;;;;;;10.63;4.37;;;20.70;99.90;;;;;;5070398;28;20287;-71
2022/07/30 01:44:18;;;;;;;6.13;4.10;;;20.60;99.90;;;;;;5071430;28;20259;-69
2022/07/30 01:46:46;;;;;;;7.70;3.97;;;20.60;99.90;;;;;;5070834;28;20706;-71
2022/07/30 01:49:15;;;;;;;6.97;4.70;;;20.60;99.90;;;;;;5071337;28;20293;-70
2022/07/30 01:51:43;;;;;;;5.63;3.90;;;20.50;99.90;;;;;;5071049;28;20221;-70
2022/07/30 01:54:12;;;;;;;5.40;3.87;;;20.50;99.90;;;;;;5071437;28;20259;-71
2022/07/30 01:56:40;;;;;;;7.10;4.37;;;20.50;99.90;;;;;;5069195;28;20229;-71
2022/07/30 01:59:09;;;;;;;9.97;4.20;;;20.50;99.90;;;;;;5071222;28;20240;-72
2022/07/30 02:01:37;;;;;;;6.93;4.17;;;20.40;99.90;;;;;;5071093;28;20242;-70
2022/07/30 02:04:04;;;;;;;5.87;4.33;;;20.40;99.90;;;;;;5071405;28;20626;-70
2022/07/30 02:06:37;;;;;;;8.97;5.20;;;20.40;99.90;;;;;;5071106;28;20206;-72
2022/07/30 02:09:06;;;;;;;5.97;4.30;;;20.40;99.90;;;;;;5071121;28;20189;-71
2022/07/30 02:14:29;;;;;;;6.13;3.90;;;20.30;99.90;;;;;;5070675;28;20183;-70
2022/07/30 02:17:00;;;;;;;5.80;3.87;;;20.30;99.90;;;;;;5070802;28;20193;-70
2022/07/30 02:19:34;;;;;;;6.30;4.13;;;20.30;99.90;;;;;;5071010;28;20553;-71
2022/07/30 02:22:05;;;;;;;8.10;4.60;;;20.30;99.90;;;;;;5070253;28;20199;-72
2022/07/30 02:24:34;;;;;;;6.70;4.27;;;20.20;99.90;;;;;;5070604;28;20256;-71
2022/07/30 02:27:04;;;;;;;5.87;4.00;;;20.20;99.90;;;;;;5070842;28;20193;-71
2022/07/30 02:29:34;;;;;;;5.60;3.93;;;20.20;99.90;;;;;;5072184;28;20295;-71
2022/07/30 02:32:08;;;;;;;5.73;3.93;;;20.20;99.90;;;;;;5072714;28;20212;-71
2022/07/30 02:34:38;;;;;;;6.73;3.80;;;20.10;99.90;;;;;;5074273;28;20227;-70
2022/07/30 02:37:08;;;;;;;6.40;3.87;;;20.20;99.90;;;;;;5074864;28;20195;-72
2022/07/30 02:39:37;;;;;;;7.57;4.00;;;20.20;99.90;;;;;;5074208;28;20204;-71
2022/07/30 02:42:06;;;;;;;6.60;3.70;;;20.20;99.90;;;;;;5074409;28;20300;-70
2022/07/30 02:44:35;;;;;;;5.33;3.87;;;20.20;99.90;;;;;;5074189;28;20295;-71
2022/07/30 02:47:05;;;;;;;4.97;3.90;;;20.20;99.90;;;;;;5073745;28;20210;-72
2022/07/30 02:49:35;;;;;;;5.30;3.40;;;20.20;99.90;;;;;;5074635;28;20602;-70
2022/07/30 02:52:04;;;;;;;6.83;3.60;;;20.20;99.90;;;;;;5074050;28;20238;-72
2022/07/30 02:54:32;;;;;;;5.93;3.30;;;20.20;99.90;;;;;;5073781;28;20207;-71
2022/07/30 02:57:00;;;;;;;4.93;3.67;;;20.20;99.90;;;;;;5074412;28;20576;-71
2022/07/30 02:59:30;;;;;;;6.47;3.70;;;20.30;99.90;;;;;;5074195;28;20677;-71
2022/07/30 03:01:58;;;;;;;9.70;6.80;;;20.30;99.90;;;;;;5072032;28;20257;-72
2022/07/30 03:04:28;;;;;;;7.83;4.90;;;20.30;99.90;;;;;;5073958;28;20208;-73
2022/07/30 03:06:56;;;;;;;7.00;4.90;;;20.30;99.90;;;;;;5074222;28;20250;-73
2022/07/30 03:09:23;;;;;;;5.23;4.10;;;20.40;99.90;;;;;;5074164;28;20575;-71
2022/07/30 03:11:52;;;;;;;7.30;4.17;;;20.40;99.90;;;;;;5074251;28;20229;-72
2022/07/30 03:14:19;;;;;;;6.40;4.00;;;20.50;99.90;;;;;;5068724;28;20202;-73
2022/07/30 03:16:52;;;;;;;6.03;3.77;;;20.50;99.90;;;;;;5060765;28;20203;-71
2022/07/30 03:19:22;;;;;;;8.53;4.70;;;20.50;99.90;;;;;;5073224;28;20211;-73
2022/07/30 03:21:52;;;;;;;7.63;4.80;;;20.50;99.90;;;;;;5074160;28;20205;-72
2022/07/30 03:24:20;;;;;;;6.10;4.70;;;20.60;99.90;;;;;;5073479;28;20597;-73
2022/07/30 03:26:48;;;;;;;5.90;3.97;;;20.60;99.90;;;;;;5073787;28;20607;-73
2022/07/30 03:29:17;;;;;;;5.63;3.97;;;20.60;99.90;;;;;;5073624;28;20200;-73
2022/07/30 03:31:44;;;;;;;5.67;3.53;;;20.70;99.90;;;;;;5072676;28;20228;-74
2022/07/30 03:34:11;;;;;;;4.43;3.23;;;20.70;99.90;;;;;;5074195;28;20671;-75
2022/07/30 03:36:40;;;;;;;5.57;3.50;;;20.70;99.90;;;;;;5074055;28;20643;-73
2022/07/30 03:39:09;;;;;;;4.67;3.50;;;20.80;99.90;;;;;;5073674;28;20304;-71
2022/07/30 03:41:37;;;;;;;6.50;4.30;;;20.80;99.90;;;;;;5072874;28;20201;-70
2022/07/30 03:44:05;;;;;;;8.20;3.90;;;20.80;99.90;;;;;;5073579;28;20674;-70
2022/07/30 03:46:34;;;;;;;6.63;3.90;;;20.80;99.90;;;;;;5071117;28;20295;-72
2022/07/30 03:49:02;;;;;;;5.47;3.37;;;20.90;99.90;;;;;;5073309;28;20295;-71
2022/07/30 03:51:29;;;;;;;6.10;3.30;;;20.90;99.90;;;;;;5073017;28;20315;-72
2022/07/30 03:53:56;;;;;;;6.67;3.67;;;20.90;99.90;;;;;;5070592;28;20200;-71
2022/07/30 03:56:25;;;;;;;7.57;3.60;;;20.90;99.90;;;;;;5073080;28;20217;-71
2022/07/30 03:58:52;;;;;;;6.33;3.43;;;20.90;99.90;;;;;;5072984;28;20685;-71
2022/07/30 04:01:18;;;;;;;6.90;3.50;;;20.90;99.90;;;;;;5072014;28;20294;-72
2022/07/30 04:03:45;;;;;;;7.13;3.80;;;21.00;99.90;;;;;;5072801;28;20279;-71
2022/07/30 04:06:12;;;;;;;6.67;3.73;;;21.00;99.90;;;;;;5070299;28;20247;-71
2022/07/30 04:08:39;;;;;;;7.03;3.60;;;21.00;99.90;;;;;;5072914;28;20219;-72
2022/07/30 04:11:06;;;;;;;7.00;3.23;;;21.00;99.90;;;;;;5072105;28;20296;-72
2022/07/30 04:13:34;;;;;;;5.60;3.47;;;21.10;99.90;;;;;;5072698;28;20246;-71
2022/07/30 04:16:07;;;;;;;4.73;3.27;;;21.20;99.90;;;;;;5072862;28;20633;-73
2022/07/30 04:18:38;;;;;;;8.27;3.20;;;21.30;99.90;;;;;;5072514;28;20195;-71
2022/07/30 04:21:08;;;;;;;5.43;3.50;;;21.40;99.90;;;;;;5071311;28;20207;-70
2022/07/30 04:23:35;;;;;;;9.40;3.50;;;21.40;99.90;;;;;;5072378;28;20201;-71
2022/07/30 04:26:03;;;;;;;6.90;3.10;;;21.40;99.90;;;;;;5072239;28;20264;-71
2022/07/30 04:28:30;;;;;;;4.33;2.90;;;21.50;99.90;;;;;;5072037;28;20204;-71
2022/07/30 04:30:58;;;;;;;7.37;3.40;;;21.50;99.90;;;;;;5072577;28;20641;-71
2022/07/30 04:33:26;;;;;;;6.03;3.20;;;21.60;99.90;;;;;;5072184;28;20264;-71
2022/07/30 04:35:54;;;;;;;4.30;3.20;;;21.60;99.90;;;;;;5070639;28;20209;-71
2022/07/30 04:38:21;;;;;;;8.87;3.70;;;21.70;99.90;;;;;;5071894;28;20242;-72
2022/07/30 04:40:48;;;;;;;6.27;3.60;;;21.80;99.90;;;;;;5072098;28;20240;-72
2022/07/30 04:43:15;;;;;;;5.07;3.13;;;21.80;99.90;;;;;;5071992;28;20287;-70
2022/07/30 04:45:43;;;;;;;4.30;3.00;;;21.90;99.90;;;;;;5072194;28;20687;-70
2022/07/30 04:48:11;;;;;;;4.97;3.27;;;22.00;99.90;;;;;;5071989;28;20578;-71
2022/07/30 04:50:41;;;;;;;5.83;3.30;;;22.10;99.90;;;;;;5070303;28;20288;-71
2022/07/30 04:53:09;;;;;;;10.07;3.30;;;22.10;99.90;;;;;;5070502;28;20229;-71
2022/07/30 04:55:40;;;;;;;5.07;3.63;;;22.10;99.90;;;;;;5072025;28;20205;-73
2022/07/30 04:58:08;;;;;;;6.53;3.80;;;22.20;99.90;;;;;;5068383;28;20295;-72
2022/07/30 05:00:36;;;;;;;4.57;3.33;;;22.20;99.90;;;;;;5071544;28;20295;-71
2022/07/30 05:03:06;;;;;;;6.30;3.57;;;22.30;99.90;;;;;;5071520;28;20261;-72
2022/07/30 05:05:36;;;;;;;10.33;4.43;;;22.30;99.90;;;;;;5063492;28;20200;-71
2022/07/30 05:08:04;;;;;;;4.93;3.63;;;22.40;99.90;;;;;;5068705;28;20263;-71
2022/07/30 05:10:31;;;;;;;5.07;3.60;;;22.40;99.90;;;;;;5071318;28;20315;-71
2022/07/30 05:12:58;;;;;;;10.80;3.90;;;22.40;99.90;;;;;;5071714;28;20227;-71
2022/07/30 05:15:25;;;;;;;7.00;3.47;;;22.50;99.90;;;;;;5069713;28;20202;-72
2022/07/30 05:17:52;;;;;;;6.90;3.70;;;22.50;99.90;;;;;;5070384;28;20208;-72
2022/07/30 05:20:19;;;;;;;6.17;3.47;;;22.60;99.90;;;;;;5071405;28;20341;-72
2022/07/30 05:22:47;;;;;;;5.07;3.30;;;22.60;99.90;;;;;;5072076;28;20207;-74
2022/07/30 05:25:16;;;;;;;7.93;3.67;;;22.70;99.90;;;;;;5069682;28;20269;-72
2022/07/30 05:27:43;;;;;;;6.73;3.70;;;22.70;99.90;;;;;;5069192;28;20221;-72
2022/07/30 05:30:11;;;;;;;7.67;3.93;;;22.80;99.90;;;;;;5071296;28;20720;-72
2022/07/30 05:32:38;;;;;;;8.23;3.77;;;22.90;99.90;;;;;;5071189;28;20225;-71
2022/07/30 05:35:05;;;;;;;5.37;3.23;;;22.90;99.90;;;;;;5071108;28;20350;-72
2022/07/30 05:37:33;;;;;;;6.73;3.17;;;23.00;99.90;;;;;;5070471;28;20214;-72
2022/07/30 05:40:01;;;;;;;6.90;3.90;;;23.10;99.90;;;;;;5069348;28;20215;-73
2022/07/30 05:42:28;;;;;;;6.17;3.30;;;23.20;99.90;;;;;;5071752;28;20310;-72
2022/07/30 05:44:55;;;;;;;5.63;3.37;;;23.30;99.90;;;;;;5071379;28;20686;-71
2022/07/30 05:47:22;;;;;;;11.27;3.60;;;23.40;99.90;;;;;;5070283;28;20338;-70
2022/07/30 05:49:49;;;;;;;6.67;3.90;;;23.50;99.90;;;;;;5070430;28;20277;-70
2022/07/30 05:52:16;;;;;;;6.67;3.70;;;23.60;99.90;;;;;;5066049;28;20229;-70
2022/07/30 05:54:43;;;;;;;5.87;3.90;;;23.60;99.90;;;;;;5071272;28;20249;-70
2022/07/30 05:57:11;;;;;;;7.83;4.60;;;23.70;99.90;;;;;;5071243;28;20761;-73
2022/07/30 05:59:38;;;;;;;5.97;3.90;;;23.80;99.90;;;;;;5070808;28;20208;-71
2022/07/30 06:02:05;;;;;;;9.97;5.27;;;23.90;99.90;;;;;;5068702;28;20216;-70
2022/07/30 06:04:34;;;;;;;6.07;3.40;;;23.90;99.90;;;;;;5071673;28;20209;-71
2022/07/30 06:07:01;;;;;;;9.07;5.33;;;24.00;99.90;;;;;;5074781;28;20223;-72
2022/07/30 06:09:28;;;;;;;8.83;3.87;;;24.10;99.90;;;;;;5072590;28;20282;-71
2022/07/30 06:11:55;;;;;;;12.60;4.70;;;24.20;99.90;;;;;;5075005;28;20575;-71
2022/07/30 06:14:23;;;;;;;9.47;3.83;;;24.20;99.90;;;;;;5075209;28;20231;-71
2022/07/30 06:16:50;;;;;;;8.10;3.10;;;24.30;99.90;;;;;;5075040;28;20276;-72
2022/07/30 06:19:17;;;;;;;5.43;3.20;;;24.40;99.90;;;;;;5074845;28;20209;-70
2022/07/30 06:21:44;;;;;;;8.20;3.40;;;24.50;99.90;;;;;;5074805;28;20203;-70
2022/07/30 06:24:11;;;;;;;5.97;3.30;;;24.50;99.90;;;;;;5073914;28;20253;-72
2022/07/30 06:26:37;;;;;;;11.43;3.60;;;24.60;99.90;;;;;;5073282;28;20232;-70
2022/07/30 06:29:04;;;;;;;3.77;2.80;;;24.70;99.90;;;;;;5073959;28;20207;-70
2022/07/30 06:31:33;;;;;;;6.33;2.80;;;24.80;99.90;;;;;;5073181;28;20758;-71
2022/07/30 06:33:59;;;;;;;7.77;3.40;;;24.90;99.90;;;;;;5073139;28;20253;-71
2022/07/30 06:36:26;;;;;;;5.63;2.83;;;25.00;99.90;;;;;;5074681;28;20652;-71
2022/07/30 06:38:53;;;;;;;6.73;3.30;;;25.10;99.90;;;;;;5074706;28;20212;-74
2022/07/30 06:41:20;;;;;;;6.80;3.65;;;25.10;99.90;;;;;;5074642;28;20220;-71
2022/07/30 06:43:47;;;;;;;6.10;3.85;;;25.20;99.90;;;;;;5074355;28;20294;-72
2022/07/30 06:46:14;;;;;;;6.68;3.17;;;25.30;99.90;;;;;;5074592;28;20206;-74
2022/07/30 06:48:42;;;;;;;8.02;3.10;;;25.40;99.90;;;;;;5071385;28;20261;-71
2022/07/30 06:51:09;;;;;;;4.60;2.50;;;25.40;99.90;;;;;;5072164;28;20294;-71
2022/07/30 06:53:36;;;;;;;5.90;2.50;;;25.50;99.90;;;;;;5072359;28;20636;-71
2022/07/30 06:56:03;;;;;;;5.63;2.95;;;25.60;99.90;;;;;;5073703;28;20212;-72
2022/07/30 06:58:30;;;;;;;6.28;3.72;;;25.60;99.90;;;;;;5074219;28;20633;-70
2022/07/30 07:00:57;;;;;;;6.15;3.08;;;25.70;99.90;;;;;;5073538;28;20212;-72
2022/07/30 07:03:25;;;;;;;7.68;2.70;;;25.70;99.90;;;;;;5073789;28;20200;-71
2022/07/30 07:05:53;;;;;;;5.63;2.97;;;25.80;99.90;;;;;;5074022;28;20203;-71
2022/07/30 07:08:20;;;;;;;4.05;2.30;;;25.90;99.90;;;;;;5073158;28;20237;-71
2022/07/30 07:10:47;;;;;;;5.25;2.35;;;26.00;99.90;;;;;;5073906;28;20679;-75
2022/07/30 07:13:14;;;;;;;3.65;2.50;;;26.00;99.90;;;;;;5073589;28;20218;-71
2022/07/30 07:15:41;;;;;;;8.80;2.70;;;26.10;99.90;;;;;;5071988;28;20291;-72
2022/07/30 07:18:08;;;;;;;5.25;2.50;;;26.20;99.90;;;;;;5074060;28;20210;-71
2022/07/30 07:20:35;;;;;;;5.97;2.53;;;26.30;99.90;;;;;;5074158;28;20717;-71
2022/07/30 07:23:04;;;;;;;3.58;2.65;;;26.30;99.90;;;;;;5073753;28;20289;-72
2022/07/30 07:25:31;;;;;;;7.80;2.95;;;26.40;99.90;;;;;;5073475;28;20242;-72
2022/07/30 07:27:58;;;;;;;3.10;2.20;;;26.40;99.90;;;;;;5070177;28;20290;-72
2022/07/30 07:30:25;;;;;;;5.90;3.60;;;26.50;99.90;;;;;;5072927;28;20312;-72
2022/07/30 07:32:52;;;;;;;4.13;2.70;;;26.60;99.90;;;;;;5070735;28;20611;-70
2022/07/30 07:35:18;;;;;;;4.28;3.00;;;26.60;99.90;;;;;;5072791;28;20358;-72
2022/07/30 07:37:45;;;;;;;5.30;3.08;;;26.70;99.90;;;;;;5073187;28;20211;-71
2022/07/30 07:40:14;;;;;;;5.22;2.42;;;26.70;99.90;;;;;;5073367;28;20240;-71
2022/07/30 07:42:41;;;;;;;4.25;2.83;;;26.80;99.90;;;;;;5072260;28;20718;-73
2022/07/30 07:45:08;;;;;;;4.78;3.05;;;26.80;99.90;;;;;;5073396;28;20666;-71
2022/07/30 07:47:43;;;;;;;5.53;3.20;;;26.90;99.90;;;;;;5071345;28;20202;-71
2022/07/30 07:50:10;;;;;;;5.90;3.30;;;26.90;99.90;;;;;;5073236;28;20211;-72
2022/07/30 07:52:37;;;;;;;5.20;3.40;;;27.00;99.90;;;;;;5071969;28;20202;-72
2022/07/30 07:55:06;;;;;;;3.63;2.50;;;27.00;99.90;;;;;;5072923;28;20257;-70
2022/07/30 07:57:40;;;;;;;5.68;3.08;;;27.00;99.90;;;;;;5072804;28;20305;-72
2022/07/30 08:00:08;;;;;;;4.90;2.90;;;27.10;99.90;;;;;;5072067;28;20216;-71
2022/07/30 08:02:35;;;;;;;7.78;2.92;;;27.20;99.90;;;;;;5071508;28;20260;-71
2022/07/30 08:05:04;;;;;;;4.50;2.50;;;27.20;99.90;;;;;;5069391;28;20197;-74
2022/07/30 08:07:31;;;;;;;4.25;2.30;;;27.20;99.90;;;;;;5071371;28;20578;-74
2022/07/30 08:09:58;;;;;;;2.83;2.38;;;27.30;99.90;;;;;;5072268;28;20781;-72
2022/07/30 08:12:25;;;;;;;3.22;2.30;;;27.40;99.90;;;;;;5072477;28;20223;-72
2022/07/30 08:14:53;;;;;;;3.67;2.45;;;27.40;99.90;;;;;;5072316;28;20222;-71
2022/07/30 08:17:20;;;;;;;5.40;2.70;;;27.40;99.90;;;;;;5072290;28;20213;-72
2022/07/30 08:19:47;;;;;;;3.88;2.28;;;27.50;99.90;;;;;;5072565;28;20220;-72
2022/07/30 08:22:13;;;;;;;4.05;2.40;;;27.50;99.90;;;;;;5072798;28;20293;-71
2022/07/30 08:24:40;;;;;;;6.80;2.65;;;27.60;99.90;;;;;;5072329;28;20324;-73
2022/07/30 08:27:07;;;;;;;4.38;3.03;;;27.50;99.60;;;;;;5072426;28;20293;-70
2022/07/30 08:29:34;;;;;;;6.15;2.78;;;27.60;98.90;;;;;;5071959;28;20313;-72
2022/07/30 08:32:03;;;;;;;4.22;2.75;;;27.60;99.20;;;;;;5069788;28;20206;-71
2022/07/30 08:34:29;;;;;;;3.95;2.60;;;27.60;99.20;;;;;;5072457;28;20325;-72
2022/07/30 08:36:56;;;;;;;4.00;2.45;;;27.60;99.30;;;;;;5072098;28;20275;-71
2022/07/30 08:39:23;;;;;;;3.15;2.20;;;27.70;99.70;;;;;;5072311;28;20649;-74
2022/07/30 08:41:50;;;;;;;5.97;2.38;;;27.70;98.90;;;;;;5073184;28;20288;-73
2022/07/30 08:44:18;;;;;;;3.75;2.30;;;27.70;99.20;;;;;;5073244;28;20205;-72
2022/07/30 08:46:47;;;;;;;4.38;2.92;;;27.80;99.30;;;;;;5069805;28;20198;-73
2022/07/30 08:49:16;;;;;;;3.15;2.45;;;27.80;99.20;;;;;;5069832;28;20213;-72
2022/07/30 08:51:43;;;;;;;4.88;2.65;;;27.80;98.90;;;;;;5072283;28;20202;-72
2022/07/30 08:54:10;;;;;;;4.20;2.80;;;27.90;99.00;;;;;;5072235;28;20320;-72
2022/07/30 08:56:37;;;;;;;4.63;2.58;;;28.00;98.70;;;;;;5071928;28;20261;-71
2022/07/30 08:59:04;;;;;;;7.28;2.67;;;28.00;98.20;;;;;;5072384;28;20239;-73
2022/07/30 09:01:31;;;;;;;4.55;2.60;;;28.00;98.30;;;;;;5072165;28;20211;-72
2022/07/30 09:03:58;;;;;;;3.25;2.30;;;28.10;98.30;;;;;;5072541;28;20203;-71
2022/07/30 09:06:27;;;;;;;5.97;2.42;;;28.20;98.40;;;;;;5072060;28;20304;-72
2022/07/30 09:08:54;;;;;;;5.40;2.40;;;28.20;98.30;;;;;;5072415;28;20690;-72
2022/07/30 09:11:21;;;;;;;6.72;2.38;;;28.30;97.60;;;;;;5071938;28;20214;-71
2022/07/30 09:13:49;;;;;;;3.72;2.40;;;28.40;97.40;;;;;;5071752;28;20565;-71
2022/07/30 09:16:21;;;;;;;6.63;2.58;;;28.40;97.30;;;;;;5071978;28;20208;-71
2022/07/30 09:18:49;;;;;;;2.88;2.35;;;28.60;97.40;;;;;;5071543;28;20253;-71
2022/07/30 09:21:17;;;;;;;6.28;2.40;;;28.60;97.50;;;;;;5072324;28;20310;-71
2022/07/30 09:24:00;;;;;;;3.67;2.63;;;28.80;97.90;;;;;;5071808;28;20713;-71
2022/07/30 09:26:28;;;;;;;3.67;2.30;;;28.80;96.30;;;;;;5071503;28;20279;-74
2022/07/30 09:28:55;;;;;;;2.65;2.17;;;28.80;96.40;;;;;;5071622;28;20292;-72
2022/07/30 09:31:22;;;;;;;3.60;2.35;;;29.00;96.30;;;;;;5072063;28;20253;-73
2022/07/30 09:33:49;;;;;;;5.00;2.58;;;29.10;96.20;;;;;;5071780;28;20220;-73
2022/07/30 09:36:18;;;;;;;6.32;2.30;;;29.20;95.70;;;;;;5072399;28;20255;-74
2022/07/30 09:38:47;;;;;;;3.00;2.20;;;29.30;94.60;;;;;;5070863;28;20208;-72
2022/07/30 09:41:17;;;;;;;3.20;2.20;;;29.20;94.90;;;;;;5072035;28;20272;-74
2022/07/30 09:43:46;;;;;;;3.00;2.60;;;29.40;95.30;;;;;;5071436;28;20231;-72
2022/07/30 09:46:13;;;;;;;4.43;3.45;;;29.40;95.50;;;;;;5071800;28;20634;-72
2022/07/30 09:48:40;;;;;;;5.53;2.58;;;29.50;94.90;;;;;;5071323;28;20244;-72
2022/07/30 09:51:08;;;;;;;6.85;2.63;;;29.50;94.90;;;;;;5071958;28;20307;-72
2022/07/30 09:53:35;;;;;;;5.82;2.70;;;29.60;94.90;;;;;;5071627;28;20331;-72
2022/07/30 09:56:22;;;;;;;3.63;2.47;;;29.60;94.90;;;;;;5071369;28;20208;-72
2022/07/30 09:58:50;;;;;;;4.63;2.30;;;29.50;95.10;;;;;;5071642;28;20193;-73
2022/07/30 10:01:17;;;;;;;7.45;2.50;;;29.50;95.00;;;;;;5071145;28;20207;-72
2022/07/30 10:03:44;;;;;;;3.35;2.10;;;29.60;95.00;;;;;;5071508;28;20269;-73
2022/07/30 10:06:11;;;;;;;4.45;2.28;;;29.60;95.00;;;;;;5071551;28;20572;-73
2022/07/30 10:08:41;;;;;;;3.13;2.17;;;29.70;94.40;;;;;;5071628;28;20291;-73
2022/07/30 10:11:10;;;;;;;2.45;2.08;;;29.70;94.20;;;;;;5071664;28;20567;-72
2022/07/30 10:13:38;;;;;;;3.83;2.70;;;29.70;94.40;;;;;;5071380;28;20208;-73
2022/07/30 10:16:07;;;;;;;3.17;2.20;;;29.80;94.20;;;;;;5071148;28;20208;-73
2022/07/30 10:18:35;;;;;;;3.20;2.28;;;29.80;94.10;;;;;;5071006;28;20291;-72
2022/07/30 10:21:03;;;;;;;2.92;2.30;;;29.90;94.00;;;;;;5071529;28;20698;-72
2022/07/30 10:23:31;;;;;;;5.88;2.42;;;30.00;93.90;;;;;;5071376;28;20295;-74
2022/07/30 10:25:59;;;;;;;4.60;3.03;;;30.00;94.00;;;;;;5071082;28;20236;-73
2022/07/30 10:28:28;;;;;;;3.22;2.60;;;30.00;94.10;;;;;;5072052;28;20240;-71
2022/07/30 10:30:56;;;;;;;4.97;2.35;;;30.00;94.20;;;;;;5071119;28;20220;-73
2022/07/30 10:33:26;;;;;;;2.88;2.30;;;30.00;94.10;;;;;;5071032;28;20303;-71
2022/07/30 10:35:54;;;;;;;4.03;2.33;;;30.10;94.00;;;;;;5071374;28;20196;-74
2022/07/30 10:38:24;;;;;;;5.13;2.30;;;30.20;93.80;;;;;;5071033;28;20294;-72
2022/07/30 10:40:57;;;;;;;4.38;2.60;;;30.30;94.10;;;;;;5071598;28;20196;-72
2022/07/30 10:43:49;;;;;;;4.38;2.42;;;30.20;93.90;;;;;;5071389;28;20219;-74
2022/07/30 10:46:26;;;;;;;4.95;2.17;;;30.30;93.40;;;;;;5060330;28;20254;-71
2022/07/30 10:48:56;;;;;;;3.95;2.25;;;30.40;93.50;;;;;;5071503;28;20668;-71
2022/07/30 10:51:41;;;;;;;3.45;2.40;;;30.50;93.20;;;;;;5072079;28;20291;-72
2022/07/30 10:54:38;;;;;;;3.65;2.20;;;30.50;93.10;;;;;;5074957;28;20670;-72
2022/07/30 10:57:08;;;;;;;3.22;2.47;;;30.50;92.30;;;;;;5074595;28;20200;-72
2022/07/30 11:00:08;;;;;;;5.80;2.90;;;30.50;92.50;;;;;;5074781;28;20200;-73
2022/07/30 11:02:35;;;;;;;3.38;2.40;;;30.40;92.60;;;;;;5074769;28;20189;-72
2022/07/30 11:05:23;;;;;;;6.38;2.75;;;30.40;92.60;;;;;;5074507;28;20211;-74
2022/07/30 11:07:50;;;;;;;3.92;2.50;;;30.40;91.90;;;;;;5074512;28;20236;-73
2022/07/30 11:10:35;;;;;;;4.22;2.10;;;30.30;91.70;;;;;;5074026;28;20207;-73
2022/07/30 11:13:02;;;;;;;3.90;2.45;;;30.30;91.90;;;;;;5075070;28;20213;-71
2022/07/30 11:15:54;;;;;;;3.67;2.40;;;30.40;91.80;;;;;;5074251;28;20319;-73
2022/07/30 11:18:23;;;;;;;3.03;2.28;;;30.40;91.50;;;;;;5074504;28;20224;-72
2022/07/30 11:21:17;;;;;;;6.20;4.10;;;30.40;91.60;;;;;;5074662;28;20248;-72
2022/07/30 11:23:45;;;;;;;3.03;2.60;;;30.30;91.70;;;;;;5074386;28;20204;-73
2022/07/30 11:26:49;;;;;;;3.55;2.20;;;30.20;91.20;;;;;;5073803;28;20725;-72
2022/07/30 11:29:39;;;;;;;3.28;2.70;;;30.20;91.40;;;;;;5073965;28;20192;-73
2022/07/30 11:32:39;;;;;;;5.43;2.70;;;30.10;91.00;;;;;;5074213;28;20202;-72
2022/07/30 11:35:17;;;;;;;8.88;2.40;;;29.70;91.20;;;;;;4992290;28;20642;-72
2022/07/30 11:38:05;;;;;;;3.30;2.40;;;29.60;91.50;;;;;;4992319;28;20230;-73
2022/07/30 11:40:34;;;;;;;4.03;2.28;;;29.50;91.30;;;;;;4992343;28;20768;-73
2022/07/30 11:43:21;;;;;;;3.53;2.47;;;29.50;91.20;;;;;;4991982;28;20210;-73
2022/07/30 11:45:48;;;;;;;6.93;2.58;;;29.40;91.40;;;;;;4991981;28;20207;-74
2022/07/30 11:48:18;;;;;;;3.65;2.40;;;29.40;91.70;;;;;;4991732;28;20250;-72
2022/07/30 11:50:46;;;;;;;5.10;2.42;;;29.40;92.00;;;;;;4991975;28;20203;-72
2022/07/30 11:53:20;;;;;;;5.53;2.83;;;29.40;92.10;;;;;;4992054;28;20739;-71
2022/07/30 11:55:52;;;;;;;3.92;2.25;;;29.40;91.80;;;;;;4991711;28;20249;-72
2022/07/30 11:58:28;;;;;;;11.02;2.83;;;29.30;91.80;;;;;;4991554;28;20195;-72
2022/07/30 12:00:57;;;;;;;3.13;2.28;;;29.30;92.10;;;;;;4991904;28;20550;-72
2022/07/30 12:03:26;;;;;;;3.83;2.30;;;29.20;92.30;;;;;;4991492;28;20211;-72
2022/07/30 12:05:53;;;;;;;8.02;2.95;;;29.20;92.30;;;;;;5027236;28;20203;-72
2022/07/30 12:08:22;;;;;;;5.07;2.63;;;29.20;92.40;;;;;;5073300;28;20549;-74
2022/07/30 12:10:58;;;;;;;3.10;2.40;;;29.20;92.50;;;;;;5073600;28;20218;-75
2022/07/30 12:13:25;;;;;;;3.88;2.45;;;29.20;92.30;;;;;;5071305;28;20329;-74
2022/07/30 12:15:53;;;;;;;3.63;2.30;;;29.30;92.30;;;;;;5073086;28;20689;-74
2022/07/30 12:18:27;;;;;;;6.13;3.15;;;29.30;92.20;;;;;;5072801;28;20653;-72
2022/07/30 12:20:56;;;;;;;7.13;2.78;;;29.20;93.00;;;;;;5072214;28;20200;-75
2022/07/30 12:23:25;;;;;;;4.32;2.53;;;29.10;93.40;;;;;;5070501;28;20600;-71
2022/07/30 12:25:52;;;;;;;4.35;2.85;;;29.10;93.10;;;;;;5070762;28;20231;-72
2022/07/30 12:28:23;;;;;;;4.10;2.70;;;29.00;93.70;;;;;;5069827;28;20316;-73
2022/07/30 12:30:51;;;;;;;5.30;2.50;;;29.00;93.20;;;;;;5052905;28;20640;-72
2022/07/30 12:33:19;;;;;;;4.15;2.50;;;29.10;92.80;;;;;;5064781;28;20204;-72
2022/07/30 12:35:47;;;;;;;5.47;3.65;;;29.10;93.00;;;;;;5073241;28;20697;-71
2022/07/30 12:38:15;;;;;;;10.60;3.10;;;29.10;92.90;;;;;;5070852;28;20803;-72
2022/07/30 12:40:55;;;;;;;4.13;2.85;;;29.00;93.10;;;;;;5070590;28;20206;-73
2022/07/30 12:43:45;;;;;;;5.97;2.92;;;29.00;93.60;;;;;;5062501;28;20629;-71
2022/07/30 12:46:13;;;;;;;5.75;2.90;;;28.90;93.90;;;;;;5072117;28;20253;-70
2022/07/30 12:48:54;;;;;;;4.68;2.60;;;28.90;94.20;;;;;;5072113;28;20289;-71
2022/07/30 12:51:22;;;;;;;5.28;2.80;;;28.90;94.00;;;;;;5071738;28;20677;-70
2022/07/30 12:53:50;;;;;;;5.70;2.60;;;28.90;94.20;;;;;;5071983;28;20200;-71
2022/07/30 12:56:20;;;;;;;4.18;2.60;;;28.90;94.00;;;;;;5071293;28;20438;-71
2022/07/30 12:58:47;;;;;;;4.00;2.95;;;28.90;94.00;;;;;;5068436;28;20245;-70
2022/07/30 13:01:14;;;;;;;6.60;3.20;;;28.90;94.80;;;;;;5051938;28;20213;-69